地図

経路データ

SID SEASON NUMBER BASIN SUBBASIN NAME ISO_TIME NATURE LAT LON WMO_WIND WMO_PRES WMO_AGENCY TRACK_TYPE DIST2LAND LANDFALL IFLAG USA_AGENCY USA_ATCF_ID USA_LAT USA_LON USA_RECORD USA_STATUS USA_WIND USA_PRES USA_SSHS USA_R34_NE USA_R34_SE USA_R34_SW USA_R34_NW USA_R50_NE USA_R50_SE USA_R50_SW USA_R50_NW USA_R64_NE USA_R64_SE USA_R64_SW USA_R64_NW USA_POCI USA_ROCI USA_RMW USA_EYE TOKYO_LAT TOKYO_LON TOKYO_GRADE TOKYO_WIND TOKYO_PRES TOKYO_R50_DIR TOKYO_R50_LONG TOKYO_R50_SHORT TOKYO_R30_DIR TOKYO_R30_LONG TOKYO_R30_SHORT TOKYO_LAND CMA_LAT CMA_LON CMA_CAT CMA_WIND CMA_PRES HKO_LAT HKO_LON HKO_CAT HKO_WIND HKO_PRES NEWDELHI_LAT NEWDELHI_LON NEWDELHI_GRADE NEWDELHI_WIND NEWDELHI_PRES NEWDELHI_CI NEWDELHI_DP NEWDELHI_POCI REUNION_LAT REUNION_LON REUNION_TYPE REUNION_WIND REUNION_PRES REUNION_TNUM REUNION_CI REUNION_RMW REUNION_R34_NE REUNION_R34_SE REUNION_R34_SW REUNION_R34_NW REUNION_R50_NE REUNION_R50_SE REUNION_R50_SW REUNION_R50_NW REUNION_R64_NE REUNION_R64_SE REUNION_R64_SW REUNION_R64_NW BOM_LAT BOM_LON BOM_TYPE BOM_WIND BOM_PRES BOM_TNUM BOM_CI BOM_RMW BOM_R34_NE BOM_R34_SE BOM_R34_SW BOM_R34_NW BOM_R50_NE BOM_R50_SE BOM_R50_SW BOM_R50_NW BOM_R64_NE BOM_R64_SE BOM_R64_SW BOM_R64_NW BOM_ROCI BOM_POCI BOM_EYE BOM_POS_METHOD BOM_PRES_METHOD NADI_LAT NADI_LON NADI_CAT NADI_WIND NADI_PRES WELLINGTON_LAT WELLINGTON_LON WELLINGTON_WIND WELLINGTON_PRES DS824_LAT DS824_LON DS824_STAGE DS824_WIND DS824_PRES TD9636_LAT TD9636_LON TD9636_STAGE TD9636_WIND TD9636_PRES TD9635_LAT TD9635_LON TD9635_WIND TD9635_PRES TD9635_ROCI NEUMANN_LAT NEUMANN_LON NEUMANN_CLASS NEUMANN_WIND NEUMANN_PRES MLC_LAT MLC_LON MLC_CLASS MLC_WIND MLC_PRES USA_GUST BOM_GUST BOM_GUST_PER REUNION_GUST REUNION_GUST_PER USA_SEAHGT USA_SEARAD_NE USA_SEARAD_SE USA_SEARAD_SW USA_SEARAD_NW STORM_SPEED STORM_DIR
1997355S05189 1998 113 SP MM SUSAN 1997-12-20 12:00:00 TS -5.30000 188.700 main 926 881 O___________O_ jtwc_sh SH111998 -5.30000 -171.300 20 -1 -5.30000 -171.300 TC 20 8 184
1997355S05189 1998 113 SP MM SUSAN 1997-12-20 15:00:00 TS -5.70999 188.668 main 881 836 P___________P_ SH111998 -5.70999 -171.332 20 -1 -5.70999 -171.332 TC 20 8 187
1997355S05189 1998 113 SP MM SUSAN 1997-12-20 18:00:00 TS -6.10000 188.600 main 836 801 O___________O_ jtwc_sh SH111998 -6.10000 -171.400 20 -1 -6.10000 -171.400 TC 20 8 194
1997355S05189 1998 113 SP MM SUSAN 1997-12-20 21:00:00 TS -6.47001 188.472 main 790 743 P___________P_ SH111998 -6.47001 -171.528 20 -1 -6.47001 -171.528 TC 20 9 200
1997355S05189 1998 113 SP MM SUSAN 1997-12-21 00:00:00 TS -6.90000 188.300 main 743 685 O___________O_ jtwc_sh SH111998 -6.90000 -171.700 20 -1 -6.90000 -171.700 TC 20 11 200
1997355S05189 1998 113 SP MM SUSAN 1997-12-21 03:00:00 TS -7.47752 188.100 main 674 605 P___________P_ SH111998 -7.47752 -171.900 20 -1 -7.47752 -171.900 TC 20 13 198
1997355S05189 1998 113 SP MM SUSAN 1997-12-21 06:00:00 TS -8.10000 187.900 main 605 538 O___________O_ jtwc_sh SH111998 -8.10000 -172.100 20 -1 -8.10000 -172.100 TC 20 13 196
1997355S05189 1998 113 SP MM SUSAN 1997-12-21 09:00:00 TS -8.69496 187.750 main 537 481 P___________P_ SH111998 -8.69496 -172.250 20 -1 -8.69496 -172.250 TC 20 11 195
1997355S05189 1998 113 SP MM SUSAN 1997-12-21 12:00:00 TS -9.20000 187.600 main 481 447 O___________O_ jtwc_sh SH111998 -9.20000 -172.400 20 -1 -9.20000 -172.400 TC 20 9 200
1997355S05189 1998 113 SP MM SUSAN 1997-12-21 15:00:00 TS -9.53742 187.437 main 447 414 P___________P_ SH111998 -9.53742 -172.563 20 -1 -9.53742 -172.563 TC 20 7 213
1997355S05189 1998 113 SP MM SUSAN 1997-12-21 18:00:00 TS -9.80000 187.200 main 414 382 O___________O_ jtwc_sh SH111998 -9.80000 -172.800 20 -1 -9.80000 -172.800 TC 20 8 226
1997355S05189 1998 113 SP MM SUSAN 1997-12-21 21:00:00 TS -10.1226 186.823 main 383 355 P___________P_ SH111998 -10.1226 -173.177 20 -1 -10.1226 -173.177 TC 20 10 233
1997355S05189 1998 113 SP MM SUSAN 1997-12-22 00:00:00 TS -10.4000 186.400 main 357 346 O___________O_ jtwc_sh SH111998 -10.4000 -173.600 20 -1 -10.4000 -173.600 TC 20 9 240
1997355S05189 1998 113 SP MM SUSAN 1997-12-22 03:00:00 TS -10.5800 186.027 main 350 348 P___________P_ SH111998 -10.5800 -173.973 20 -1 -10.5800 -173.973 TC 20 8 246
1997355S05189 1998 113 SP MM SUSAN 1997-12-22 06:00:00 TS -10.7000 185.700 main 353 353 O___________O_ jtwc_sh SH111998 -10.7000 -174.300 20 -1 -10.7000 -174.300 TC 20 7 250
1997355S05189 1998 113 SP MM SUSAN 1997-12-22 09:00:00 TS -10.8000 185.405 main 360 357 P___________P_ SH111998 -10.8000 -174.595 20 -1 -10.8000 -174.595 TC 20 5 248
1997355S05189 1998 113 SP MM SUSAN 1997-12-22 12:00:00 TS -10.9000 185.200 main 363 354 O___________O_ jtwc_sh SH111998 -10.9000 -174.800 20 -1 -10.9000 -174.800 TC 20 4 229
1997355S05189 1998 113 SP MM SUSAN 1997-12-22 15:00:00 TS -11.0425 185.120 main 361 344 P___________P_ SH111998 -11.0425 -174.880 20 -1 -11.0425 -174.880 TC 20 3 197
1997355S05189 1998 113 SP MM SUSAN 1997-12-22 18:00:00 TS -11.2000 185.100 main 344 335 O___________O_ jtwc_sh SH111998 -11.2000 -174.900 20 -1 -11.2000 -174.900 TC 20 3 194
1997355S05189 1998 113 SP MM SUSAN 1997-12-22 21:00:00 TS -11.3500 185.043 main 343 327 P___________P_ SH111998 -11.3500 -174.957 20 -1 -11.3500 -174.957 TC 20 3 197
1997355S05189 1998 113 SP MM SUSAN 1997-12-23 00:00:00 TS -11.5000 185.000 main 327 319 O___________O_ jtwc_sh SH111998 -11.5000 -175.000 20 -1 -11.5000 -175.000 TC 20 3 185
1997355S05189 1998 113 SP MM SUSAN 1997-12-23 03:00:00 TS -11.6500 185.007 main 319 305 P___________P_ SH111998 -11.6500 -174.993 20 -1 -11.6500 -174.993 TC 20 3 0
1997355S05189 1998 113 SP MM SUSAN 1997-12-23 06:00:00 TS -11.8000 185.000 main 305 298 O___________O_ jtwc_sh SH111998 -11.8000 -175.000 20 -1 -11.8000 -175.000 TC 20 3 195
1997355S05189 1998 113 SP MM SUSAN 1997-12-23 09:00:00 TS -11.9650 184.915 main 300 300 P___________P_ SH111998 -11.9650 -175.085 20 -1 -11.9650 -175.085 TC 20 4 213
1997355S05189 1998 113 SP MM SUSAN 1997-12-23 12:00:00 TS -12.1000 184.800 main 303 303 O___________O_ jtwc_sh SH111998 -12.1000 -175.200 20 -1 -12.1000 -175.200 TC 20 3 224
1997355S05189 1998 113 SP MM SUSAN 1997-12-23 15:00:00 TS -12.1725 184.707 main 307 307 P___________P_ SH111998 -12.1725 -175.293 20 -1 -12.1725 -175.293 TC 20 2 243
1997355S05189 1998 113 SP MM SUSAN 1997-12-23 18:00:00 TS -12.2000 184.600 main 317 317 O___________O_ jtwc_sh SH111998 -12.2000 -175.400 20 -1 -12.2000 -175.400 TC 20 3 259
1997355S05189 1998 113 SP MM SUSAN 1997-12-23 21:00:00 TS -12.2225 184.443 main 336 336 P___________P_ SH111998 -12.2225 -175.557 20 -1 -12.2225 -175.557 TC 20 3 270
1997355S05189 1998 113 SP MM SUSAN 1997-12-24 00:00:00 TS -12.2000 184.300 main 346 346 O___________O_ jtwc_sh SH111998 -12.2000 -175.700 20 -1 -12.2000 -175.700 TC 20 2 304
1997355S05189 1998 113 SP MM SUSAN 1997-12-24 03:00:00 TS -12.0925 184.250 main 361 361 P___________P_ SH111998 -12.0925 -175.750 22 -1 -12.0925 -175.750 TC 22 2 333
1997355S05189 1998 113 SP MM SUSAN 1997-12-24 06:00:00 TS -12.0000 184.200 main 366 366 O___________O_ jtwc_sh SH111998 -12.0000 -175.800 25 -1 -12.0000 -175.800 TC 25 2 289
1997355S05189 1998 113 SP MM SUSAN 1997-12-24 09:00:00 TS -12.0275 184.058 main 376 376 P___________P_ SH111998 -12.0275 -175.942 25 -1 -12.0275 -175.942 TC 25 3 251
1997355S05189 1998 113 SP MM SUSAN 1997-12-24 12:00:00 TS -12.1000 183.900 main 390 390 O___________O_ jtwc_sh SH111998 -12.1000 -176.100 25 -1 -12.1000 -176.100 TC 25 3 243
1997355S05189 1998 113 SP MM SUSAN 1997-12-24 15:00:00 TS -12.1575 183.792 main 396 396 P___________P_ SH111998 -12.1575 -176.208 25 -1 -12.1575 -176.208 TC 25 2 243
1997355S05189 1998 113 SP MM SUSAN 1997-12-24 18:00:00 TS -12.2000 183.700 main 406 406 O___________O_ jtwc_sh SH111998 -12.2000 -176.300 25 -1 -12.2000 -176.300 TC 25 2 255
1997355S05189 1998 113 SP MM SUSAN 1997-12-24 21:00:00 TS -12.2075 183.600 main 416 416 P___________P_ SH111998 -12.2075 -176.400 25 -1 -12.2075 -176.400 TC 25 2 270
1997355S05189 1998 113 SP MM SUSAN 1997-12-25 00:00:00 TS -12.2000 183.500 main 426 426 O___________O_ jtwc_sh SH111998 -12.2000 -176.500 25 -1 -12.2000 -176.500 TC 25 2 272
1997355S05189 1998 113 SP MM SUSAN 1997-12-25 03:00:00 TS -12.2000 183.400 main 437 437 P___________P_ SH111998 -12.2000 -176.600 25 -1 -12.2000 -176.600 TC 25 2 270
1997355S05189 1998 113 SP MM SUSAN 1997-12-25 06:00:00 TS -12.2000 183.300 main 447 447 O___________O_ jtwc_sh SH111998 -12.2000 -176.700 25 -1 -12.2000 -176.700 TC 25 2 270
1997355S05189 1998 113 SP MM SUSAN 1997-12-25 09:00:00 TS -12.2000 183.200 main 457 457 P___________P_ SH111998 -12.2000 -176.800 25 -1 -12.2000 -176.800 TC 25 2 270
1997355S05189 1998 113 SP MM SUSAN 1997-12-25 12:00:00 TS -12.2000 183.100 main 467 467 O___________O_ jtwc_sh SH111998 -12.2000 -176.900 25 -1 -12.2000 -176.900 TC 25 2 270
1997355S05189 1998 113 SP MM SUSAN 1997-12-25 15:00:00 TS -12.2000 183.022 main 478 478 P___________P_ SH111998 -12.2000 -176.978 25 -1 -12.2000 -176.978 TC 25 2 270
1997355S05189 1998 113 SP MM SUSAN 1997-12-25 18:00:00 TS -12.2000 182.900 main 488 488 O___________O_ jtwc_sh SH111998 -12.2000 -177.100 25 -1 -12.2000 -177.100 TC 25 4 270
1997355S05189 1998 113 SP MM SUSAN 1997-12-25 21:00:00 TS -12.2001 182.657 main 509 509 P___________P_ SH111998 -12.2001 -177.343 25 -1 -12.2001 -177.343 TC 25 5 270
1997355S05189 1998 113 SP MM SUSAN 1997-12-26 00:00:00 TS -12.2000 182.400 main 522 511 O___________O_ jtwc_sh SH111998 -12.2000 -177.600 25 -1 -12.2000 -177.600 TC 25 4 270
1997355S05189 1998 113 SP MM SUSAN 1997-12-26 03:00:00 TS -12.2000 182.227 main 511 506 P___________P_ SH111998 -12.2000 -177.773 25 -1 -12.2000 -177.773 TC 25 3 270
1997355S05189 1998 113 SP MM SUSAN 1997-12-26 06:00:00 TS -12.2000 182.100 main 506 501 O___________O_ jtwc_sh SH111998 -12.2000 -177.900 25 -1 -12.2000 -177.900 TC 25 2 268
1997355S05189 1998 113 SP MM SUSAN 1997-12-26 09:00:00 TS -12.2075 182.000 main 501 497 P___________P_ SH111998 -12.2075 -178.000 25 -1 -12.2075 -178.000 TC 25 2 270
1997355S05189 1998 113 SP MM SUSAN 1997-12-26 12:00:00 TS -12.2000 181.900 main 497 492 O___________O_ jtwc_sh SH111998 -12.2000 -178.100 25 -1 -12.2000 -178.100 TC 25 2 282
1997355S05189 1998 113 SP MM SUSAN 1997-12-26 15:00:00 TS -12.1575 181.757 main 492 488 P___________P_ SH111998 -12.1575 -178.243 25 -1 -12.1575 -178.243 TC 25 3 289
1997355S05189 1998 113 SP MM SUSAN 1997-12-26 18:00:00 TS -12.1000 181.600 main 494 490 O___________O_ jtwc_sh SH111998 -12.1000 -178.400 25 -1 -12.1000 -178.400 TC 25 3 290
1997355S05189 1998 113 SP MM SUSAN 1997-12-26 21:00:00 TS -12.0500 181.450 main 500 493 P___________P_ SH111998 -12.0500 -178.550 25 -1 -12.0500 -178.550 TC 25 3 289
1997355S05189 1998 113 SP MM SUSAN 1997-12-27 00:00:00 TS -12.0000 181.300 main 493 490 O___________O_ jtwc_sh SH111998 -12.0000 -178.700 25 -1 -12.0000 -178.700 TC 25 3 289
1997355S05189 1998 113 SP MM SUSAN 1997-12-27 03:00:00 TS -11.9500 181.158 main 501 495 P___________P_ SH111998 -11.9500 -178.842 25 -1 -11.9500 -178.842 TC 25 3 289
1997355S05189 1998 113 SP MM SUSAN 1997-12-27 06:00:00 TS -11.9000 181.000 main 495 493 O___________O_ jtwc_sh SH111998 -11.9000 -179.000 25 -1 -11.9000 -179.000 TC 25 3 288
1997355S05189 1998 113 SP MM SUSAN 1997-12-27 09:00:00 TS -11.8425 180.822 main 502 498 P___________P_ SH111998 -11.8425 -179.178 25 -1 -11.8425 -179.178 TC 25 4 284
1997355S05189 1998 113 SP MM SUSAN 1997-12-27 12:00:00 TS -11.8000 180.600 main 498 494 O___________O_ jtwc_sh SH111998 -11.8000 -179.400 25 -1 -11.8000 -179.400 TC 25 5 276
1997355S05189 1998 113 SP MM SUSAN 1997-12-27 15:00:00 TS -11.7925 180.315 main 494 492 P___________P_ SH111998 -11.7925 -179.685 25 -1 -11.7925 -179.685 TC 25 6 270
1997355S05189 1998 113 SP MM SUSAN 1997-12-27 18:00:00 TS -11.8000 180.000 main 492 492 O___________O_ jtwc_sh SH111998 -11.8000 -180.000 25 -1 -11.8000 180.000 TC 25 6 269
1997355S05189 1998 113 SP MM SUSAN 1997-12-27 21:00:00 TS -11.8000 179.693 main 492 492 P___________P_ SH111998 -11.8000 179.693 25 -1 -11.8000 179.693 TC 25 6 270
1997355S05189 1998 113 SP MM SUSAN 1997-12-28 00:00:00 TS -11.8000 179.400 main 494 494 O___________O_ jtwc_sh SH111998 -11.8000 179.400 25 -1 -11.8000 179.400 TC 25 5 271
1997355S05189 1998 113 SP MM SUSAN 1997-12-28 03:00:00 TS -11.7925 179.142 main 498 498 P___________P_ SH111998 -11.7925 179.142 25 -1 -11.7925 179.142 TC 25 5 270
1997355S05189 1998 113 SP MM SUSAN 1997-12-28 06:00:00 TS -11.8000 178.900 main 502 502 O___________O_ jtwc_sh SH111998 -11.8000 178.900 25 -1 -11.8000 178.900 TC 25 5 265
1997355S05189 1998 113 SP MM SUSAN 1997-12-28 09:00:00 TS -11.8350 178.657 main 506 498 P___________P_ SH111998 -11.8350 178.657 25 -1 -11.8350 178.657 TC 25 5 258
1997355S05189 1998 113 SP MM SUSAN 1997-12-28 12:00:00 TS -11.9000 178.400 main 504 500 O___________O_ jtwc_sh SH111998 -11.9000 178.400 25 -1 -11.9000 178.400 TC 25 6 254
1997355S05189 1998 113 SP MM SUSAN 1997-12-28 15:00:00 TS -11.9850 178.107 main 504 500 P___________P_ SH111998 -11.9850 178.107 25 -1 -11.9850 178.107 TC 25 6 251
1997355S05189 1998 113 SP MM SUSAN 1997-12-28 18:00:00 TS -12.1000 177.800 main 504 498 O___________O_ jtwc_sh SH111998 -12.1000 177.800 25 -1 -12.1000 177.800 TC 25 6 246
1997355S05189 1998 113 SP MM SUSAN 1997-12-28 21:00:00 TS -12.2424 177.507 main 507 494 P___________P_ SH111998 -12.2424 177.507 25 -1 -12.2424 177.507 TC 25 7 243
1997355S05189 1998 113 SP MM SUSAN 1997-12-29 00:00:00 TS -12.4000 177.200 main 498 492 O___________O_ jtwc_sh SH111998 -12.4000 177.200 25 -1 -12.4000 177.200 TC 25 7 244
1997355S05189 1998 113 SP MM SUSAN 1997-12-29 03:00:00 TS -12.5500 176.850 main 494 492 P___________P_ SH111998 -12.5500 176.850 25 -1 -12.5500 176.850 TC 25 7 246
1997355S05189 1998 113 SP MM SUSAN 1997-12-29 06:00:00 TS -12.7000 176.500 main 496 491 O___________O_ jtwc_sh SH111998 -12.7000 176.500 25 -1 -12.7000 176.500 TC 25 7 245
1997355S05189 1998 113 SP MM SUSAN 1997-12-29 09:00:00 TS -12.8575 176.185 main 492 492 P___________P_ SH111998 -12.8575 176.185 25 -1 -12.8575 176.185 TC 25 7 243
1997355S05189 1998 113 SP MM SUSAN 1997-12-29 12:00:00 TS -13.0000 175.900 main 499 496 O___________O_ jtwc_sh SH111998 -13.0000 175.900 25 -1 -13.0000 175.900 TC 25 6 246
1997355S05189 1998 113 SP MM SUSAN 1997-12-29 15:00:00 TS -13.1000 175.635 main 509 507 P___________P_ SH111998 -13.1000 175.635 25 -1 -13.1000 175.635 TC 25 5 248
1997355S05189 1998 113 SP MM SUSAN 1997-12-29 18:00:00 TS -13.2000 175.400 main 514 511 O___________O_ jtwc_sh SH111998 -13.2000 175.400 25 -1 -13.2000 175.400 TC 25 5 237
1997355S05189 1998 113 SP MM SUSAN 1997-12-29 21:00:00 TS -13.3724 175.208 main 511 511 P___________P_ SH111998 -13.3724 175.208 25 -1 -13.3724 175.208 TC 25 5 232
1997355S05189 1998 113 SP MM SUSAN 1997-12-30 00:00:00 TS -13.5000 175.000 main 519 519 O___________O_ jtwc_sh SH111998 -13.5000 175.000 25 -1 -13.5000 175.000 TC 25 5 255
1997355S05189 1998 113 SP MM SUSAN 1997-12-30 03:00:00 TS -13.5026 174.692 main 538 538 P___________P_ SH111998 -13.5026 174.692 25 -1 -13.5026 174.692 TC 25 6 280
1997355S05189 1998 113 SP MM SUSAN 1997-12-30 06:00:00 TS -13.4000 174.400 main 566 566 O___________O_ jtwc_sh SH111998 -13.4000 174.400 25 -1 -13.4000 174.400 TC 25 5 301
1997355S05189 1998 113 SP MM SUSAN 1997-12-30 09:00:00 TS -13.2224 174.220 main 597 597 P___________P_ SH111998 -13.2224 174.220 25 -1 -13.2224 174.220 TC 25 5 324
1997355S05189 1998 113 SP MM SUSAN 1997-12-30 12:00:00 TS -13.0000 174.100 main 621 621 O___________O_ jtwc_sh SH111998 -13.0000 174.100 25 -1 -13.0000 174.100 TC 25 5 332
1997355S05189 1998 113 SP MM SUSAN 1997-12-30 15:00:00 TS -12.8000 173.985 main 646 646 P___________P_ SH111998 -12.8000 173.985 25 -1 -12.8000 173.985 TC 25 4 334
1997355S05189 1998 113 SP MM SUSAN 1997-12-30 18:00:00 TS -12.6000 173.900 main 671 671 O___________O_ jtwc_sh SH111998 -12.6000 173.900 25 -1 -12.6000 173.900 TC 25 4 339
1997355S05189 1998 113 SP MM SUSAN 1997-12-30 21:00:00 TS -12.4000 173.827 main 695 695 P___________P_ SH111998 -12.4000 173.827 25 -1 -12.4000 173.827 TC 25 4 347
1997355S05189 1998 113 SP MM SUSAN 1997-12-31 00:00:00 TS -12.2000 173.800 main 714 714 O___________O_ jtwc_sh SH111998 -12.2000 173.800 25 -1 -12.2000 173.800 TC 25 4 0
1997355S05189 1998 113 SP MM SUSAN 1997-12-31 03:00:00 TS -11.9850 173.835 main 730 730 P___________P_ SH111998 -11.9850 173.835 25 -1 -11.9850 173.835 TC 25 4 13
1997355S05189 1998 113 SP MM SUSAN 1997-12-31 06:00:00 TS -11.8000 173.900 main 739 739 O___________O_ jtwc_sh SH111998 -11.8000 173.900 25 -1 -11.8000 173.900 TC 25 3 20
1997355S05189 1998 113 SP MM SUSAN 1997-12-31 09:00:00 TS -11.6775 173.950 main 740 740 P___________P_ SH111998 -11.6775 173.950 25 -1 -11.6775 173.950 TC 25 2 27
1997355S05189 1998 113 SP MM SUSAN 1997-12-31 12:00:00 TS -11.6000 174.000 main 749 749 O___________O_ jtwc_sh SH111998 -11.6000 174.000 25 -1 -11.6000 174.000 TC 25 2 34
1997355S05189 1998 113 SP MM SUSAN 1997-12-31 15:00:00 TS -11.5350 174.050 main 751 751 P___________P_ SH111998 -11.5350 174.050 25 -1 -11.5350 174.050 TC 25 1 43
1997355S05189 1998 113 SP MM SUSAN 1997-12-31 18:00:00 TS -11.5000 174.100 main 751 751 O___________O_ jtwc_sh SH111998 -11.5000 174.100 25 -1 -11.5000 174.100 TC 25 1 64
1997355S05189 1998 113 SP MM SUSAN 1997-12-31 21:00:00 TS -11.4925 174.143 main 751 744 P___________P_ SH111998 -11.4925 174.143 25 -1 -11.4925 174.143 TC 25 1 90
1997355S05189 1998 113 SP MM SUSAN 1998-01-01 00:00:00 TS -11.5000 174.200 main 744 737 O___________O_ jtwc_sh SH111998 -11.5000 174.200 25 -1 -11.5000 174.200 TC 25 1 93
1997355S05189 1998 113 SP MM SUSAN 1998-01-01 03:00:00 TS -11.5000 174.292 main 737 731 P___________P_ SH111998 -11.5000 174.292 25 -1 -11.5000 174.292 TC 25 2 90
1997355S05189 1998 113 SP MM SUSAN 1998-01-01 06:00:00 TS -11.5000 174.400 main 731 724 O___________O_ jtwc_sh SH111998 -11.5000 174.400 25 -1 -11.5000 174.400 TC 25 2 88
1997355S05189 1998 113 SP MM SUSAN 1998-01-01 09:00:00 TS -11.4925 174.500 main 724 718 P___________P_ SH111998 -11.4925 174.500 25 -1 -11.4925 174.500 TC 25 2 90
1997355S05189 1998 113 SP MM SUSAN 1998-01-01 12:00:00 TS -11.5000 174.600 main 718 711 O___________O_ jtwc_sh SH111998 -11.5000 174.600 25 -1 -11.5000 174.600 TC 25 2 102
1997355S05189 1998 113 SP MM SUSAN 1998-01-01 15:00:00 TS -11.5350 174.700 main 711 696 P___________P_ SH111998 -11.5350 174.700 25 -1 -11.5350 174.700 TC 25 2 117
1997355S05189 1998 113 SP MM SUSAN 1998-01-01 18:00:00 TS -11.6000 174.800 main 696 681 O___________O_ jtwc_sh SH111998 -11.6000 174.800 25 -1 -11.6000 174.800 TC 25 3 127
1997355S05189 1998 113 SP MM SUSAN 1998-01-01 21:00:00 TS -11.6850 174.908 main 681 665 P___________P_ SH111998 -11.6850 174.908 25 -1 -11.6850 174.908 TC 25 3 135
1997355S05189 1998 113 SP MM SUSAN 1998-01-02 00:00:00 TS -11.8000 175.000 main 665 650 O___________O_ jtwc_sh SH111998 -11.8000 175.000 25 -1 -11.8000 175.000 TC 25 3 145
1997355S05189 1998 113 SP MM SUSAN 1998-01-02 03:00:00 TS -11.9500 175.095 main 650 631 P___________P_ SH111998 -11.9500 175.095 25 -1 -11.9500 175.095 TC 25 3 163
1997355S05189 1998 113 SP MM SUSAN 1998-01-02 06:00:00 TS -12.1000 175.100 main 631 622 O___________O_ jtwc_sh SH111998 -12.1000 175.100 25 -1 -12.1000 175.100 TC 25 3 207
1997355S05189 1998 113 SP MM SUSAN 1998-01-02 09:00:00 TS -12.2150 174.953 main 629 626 P___________P_ SH111998 -12.2150 174.953 25 -1 -12.2150 174.953 TC 25 4 243
1997355S05189 1998 113 SP MM SUSAN 1998-01-02 12:00:00 TS -12.3000 174.700 main 640 640 O___________O_ jtwc_sh SH111998 -12.3000 174.700 25 -1 -12.3000 174.700 TC 25 5 254
1997355S05189 1998 113 SP MM SUSAN 1998-01-02 15:00:00 TS -12.3650 174.415 main 653 653 P___________P_ SH111998 -12.3650 174.415 27 -1 -12.3650 174.415 TC 27 6 260
1997355S05189 1998 113 SP MM SUSAN 1998-01-02 18:00:00 TS -12.4000 174.100 main 675 675 O___________O_ jtwc_sh SH111998 -12.4000 174.100 30 -1 -12.4000 174.100 TC 30 6 267
1997355S05189 1998 113 SP MM SUSAN 1998-01-02 21:00:00 TS -12.3999 173.807 main 695 695 P___________P_ SH111998 -12.3999 173.807 32 -1 -12.3999 173.807 TC 32 6 272
1997355S05189 1998 113 SP MM SUSAN 1998-01-03 00:00:00 TS -12.3800 173.500 30 997 nadi main 714 714 O_______O___O_ jtwc_sh SH111998 -12.4000 173.500 35 0 -12.3000 173.500 30 997 -12.3000 173.500 30 997 -12.4000 173.500 TC 35 6 269
1997355S05189 1998 113 SP MM SUSAN 1998-01-03 03:00:00 TS -12.4067 173.156 main 720 686 P______IP___P_ SH111998 -12.4350 173.143 40 0 -12.3501 173.183 37 992 -12.3501 173.183 37 992 -12.4350 173.143 TC 40 6 263
1997355S05189 1998 113 SP MM SUSAN 1998-01-03 06:00:00 TS -12.4571 172.843 45 987 nadi main 676 656 O_______O___O_ jtwc_sh SH111998 -12.5000 172.800 45 0 -12.4000 172.900 45 987 -12.4000 172.900 45 987 -12.5000 172.800 TC 45 5 258
1997355S05189 1998 113 SP MM SUSAN 1998-01-03 09:00:00 TS -12.5212 172.606 main 656 632 P______IP___P_ SH111998 -12.5924 172.535 47 0 -12.4500 172.677 47 986 -12.4500 172.677 47 986 -12.5924 172.535 TC 47 5 252
1997355S05189 1998 113 SP MM SUSAN 1998-01-03 12:00:00 TS -12.6000 172.400 50 985 nadi main 632 608 O_______O___O_ jtwc_sh SH111998 -12.7000 172.300 50 0 -12.5000 172.500 50 985 -12.5000 172.500 50 985 -12.7000 172.300 TC 50 4 248
1997355S05189 1998 113 SP MM SUSAN 1998-01-03 15:00:00 TS -12.6787 172.204 main 608 588 P______IP___P_ SH111998 -12.8075 172.043 55 0 -12.5499 172.365 50 985 -12.5499 172.365 50 985 -12.8075 172.043 TC 55 4 249
1997355S05189 1998 113 SP MM SUSAN 1998-01-03 18:00:00 TS -12.7500 172.000 50 985 nadi main 588 564 O_______O___O_ jtwc_sh SH111998 -12.9000 171.800 60 0 -12.6000 172.200 50 985 -12.6000 172.200 50 985 -12.9000 171.800 TC 60 5 255
1997355S05189 1998 113 SP MM SUSAN 1998-01-03 21:00:00 TS -12.7962 171.757 main 564 535 P______IP___P_ SH111998 -12.9575 171.592 67 1 -12.6350 171.922 57 977 -12.6350 171.922 57 977 -12.9575 171.592 TC 67 5 258
1997355S05189 1998 113 SP MM SUSAN 1998-01-04 00:00:00 TS -12.8500 171.500 65 970 nadi main 535 501 O_______O___O_ jtwc_sh SH111998 -13.0000 171.400 75 1 -12.7000 171.600 65 970 -12.7000 171.600 65 970 -13.0000 171.400 TC 75 5 255
1997355S05189 1998 113 SP MM SUSAN 1998-01-04 03:00:00 TS -12.9350 171.231 main 501 476 P______IP___P_ SH111998 -13.0350 171.192 85 2 -12.8350 171.270 70 965 -12.8350 171.270 70 965 -13.0350 171.192 TC 85 5 248
1997355S05189 1998 113 SP MM SUSAN 1998-01-04 06:00:00 TS -13.0500 171.000 75 960 nadi main 476 456 O_______O___O_ jtwc_sh SH111998 -13.1000 171.000 95 2 -13.0000 171.000 75 960 -13.0000 171.000 75 960 -13.1000 171.000 TC 95 4 235
1997355S05189 1998 113 SP MM SUSAN 1998-01-04 09:00:00 TS -13.1887 170.856 main 456 442 P______IP___P_ SH111998 -13.2275 170.842 105 3 -13.1499 170.870 82 950 -13.1499 170.870 82 950 -13.2275 170.842 TC 105 4 219
1997355S05189 1998 113 SP MM SUSAN 1998-01-04 12:00:00 TS -13.3500 170.750 90 940 nadi main 442 413 O_______O___O_ jtwc_sh SH111998 -13.4000 170.700 115 4 -13.3000 170.800 90 940 -13.3000 170.800 90 940 -13.4000 170.700 TC 115 4 214
1997355S05189 1998 113 SP MM SUSAN 1998-01-04 15:00:00 TS -13.5212 170.625 main 413 394 P______IP___P_ SH111998 -13.6000 170.543 117 4 -13.4425 170.707 95 932 -13.4425 170.707 95 932 -13.6000 170.543 TC 117 4 215
1997355S05189 1998 113 SP MM SUSAN 1998-01-04 18:00:00 TS -13.7000 170.500 100 925 nadi main 394 376 O_______O___O_ jtwc_sh SH111998 -13.8000 170.400 120 4 -13.6000 170.600 100 925 -13.6000 170.600 100 925 -13.8000 170.400 TC 120 4 215
1997355S05189 1998 113 SP MM SUSAN 1998-01-04 21:00:00 TS -13.8750 170.371 main 376 362 P______IP___P_ SH111998 -13.9575 170.292 125 4 -13.7925 170.450 110 917 -13.7925 170.450 110 917 -13.9575 170.292 TC 125 4 215
1997355S05189 1998 113 SP MM SUSAN 1998-01-05 00:00:00 TS -14.0500 170.250 120 910 nadi main 362 345 O_______O___O_ jtwc_sh SH111998 -14.1000 170.200 130 4 -14.0000 170.300 120 910 -14.0000 170.300 120 910 -14.1000 170.200 TC 130 4 212
1997355S05189 1998 113 SP MM SUSAN 1998-01-05 03:00:00 TS -14.2175 170.146 main 335 325 P______IP___P_ SH111998 -14.2425 170.100 135 4 -14.1925 170.192 122 905 -14.1925 170.192 122 905 -14.2425 170.100 TC 135 4 209
1997355S05189 1998 113 SP MM SUSAN 1998-01-05 06:00:00 TS -14.4000 170.050 125 900 nadi main 325 294 O_______O___O_ jtwc_sh SH111998 -14.4000 170.000 140 5 -14.4000 170.100 125 900 -14.4000 170.100 125 900 -14.4000 170.000 TC 140 5 208
1997355S05189 1998 113 SP MM SUSAN 1998-01-05 09:00:00 TS -14.6213 169.928 main 294 280 P______IP___P_ SH111998 -14.5925 169.878 140 5 -14.6500 169.978 125 900 -14.6500 169.978 125 900 -14.5925 169.878 TC 140 5 203
1997355S05189 1998 113 SP MM SUSAN 1998-01-05 12:00:00 TS -14.8500 169.850 125 900 nadi main 280 261 O_______O___O_ jtwc_sh SH111998 -14.8000 169.800 140 5 -14.9000 169.900 125 900 -14.9000 169.900 125 900 -14.8000 169.800 TC 140 4 188
1997355S05189 1998 113 SP MM SUSAN 1998-01-05 15:00:00 TS -15.0612 169.874 main 261 256 P______IP___P_ SH111998 -15.0000 169.820 137 5 -15.1225 169.927 125 900 -15.1225 169.927 125 900 -15.0000 169.820 TC 137 4 167
1997355S05189 1998 113 SP MM SUSAN 1998-01-05 18:00:00 TS -15.2500 169.950 125 900 nadi main 265 256 O_______O___O_ jtwc_sh SH111998 -15.2000 169.900 135 4 -15.3000 170.000 125 900 -15.3000 170.000 125 900 -15.2000 169.900 TC 135 4 159
1997355S05189 1998 113 SP MM SUSAN 1998-01-05 21:00:00 TS -15.3962 170.003 main 256 251 P______IP___P_ SH111998 -15.4000 169.978 137 5 -15.3925 170.028 125 900 -15.3925 170.028 125 900 -15.4000 169.978 TC 137 3 155
1997355S05189 1998 113 SP MM SUSAN 1998-01-06 00:00:00 TS -15.5500 170.100 125 900 nadi main 261 258 O_______O___O_ jtwc_sh SH111998 -15.6000 170.100 140 5 -15.5000 170.100 125 900 -15.5000 170.100 125 900 -15.6000 170.100 TC 140 5 144
1997355S05189 1998 113 SP MM SUSAN 1998-01-06 03:00:00 TS -15.7600 170.274 main 273 273 P______IP___P_ SH111998 -15.7850 170.270 140 5 -15.7350 170.277 125 900 -15.7350 170.277 125 900 -15.7850 170.270 TC 140 6 139
1997355S05189 1998 113 SP MM SUSAN 1998-01-06 06:00:00 TS -16.0000 170.500 125 900 nadi main 290 289 O_______O___O_ jtwc_sh SH111998 -16.0000 170.500 140 5 -16.0000 170.500 125 900 -16.0000 170.500 125 900 -16.0000 170.500 TC 140 6 138
1997355S05189 1998 113 SP MM SUSAN 1998-01-06 09:00:00 TS -16.2311 170.716 main 309 309 P______IP___P_ SH111998 -16.2849 170.770 140 5 -16.1773 170.663 125 900 -16.1773 170.663 125 900 -16.2849 170.770 TC 140 7 136
1997355S05189 1998 113 SP MM SUSAN 1998-01-06 12:00:00 TS -16.5000 171.000 125 900 nadi main 341 341 O_______O___O_ jtwc_sh SH111998 -16.6000 171.100 140 5 -16.4000 170.900 125 900 -16.4000 170.900 125 900 -16.6000 171.100 TC 140 9 132
1997355S05189 1998 113 SP MM SUSAN 1998-01-06 15:00:00 TS -16.8200 171.391 main 384 384 P______IP___P_ SH111998 -16.8850 171.478 140 5 -16.7551 171.305 122 905 -16.7551 171.305 122 905 -16.8850 171.478 TC 140 11 131
1997355S05189 1998 113 SP MM SUSAN 1998-01-06 18:00:00 TS -17.2000 171.850 120 910 nadi main 441 441 O_______O___O_ jtwc_sh SH111998 -17.2000 171.900 140 5 -17.2000 171.800 120 910 -17.2000 171.800 120 910 -17.2000 171.900 TC 140 12 133
1997355S05189 1998 113 SP MM SUSAN 1998-01-06 21:00:00 TS -17.6387 172.325 main 491 465 P______IP___P_ SH111998 -17.5774 172.335 140 5 -17.7001 172.315 120 910 -17.7001 172.315 120 910 -17.5774 172.335 TC 140 13 135
1997355S05189 1998 113 SP MM SUSAN 1998-01-07 00:00:00 TS -18.1000 172.800 120 910 nadi main 465 426 O_______O___O_ jtwc_sh SH111998 -18.0000 172.800 140 5 -18.2000 172.800 120 910 -18.2000 172.800 120 910 -18.0000 172.800 TC 140 12 136
1997355S05189 1998 113 SP MM SUSAN 1998-01-07 03:00:00 TS -18.5209 173.207 main 426 392 P______IP___P_ SH111998 -18.4349 173.285 137 5 -18.6070 173.128 117 912 -18.6070 173.128 117 912 -18.4349 173.285 TC 137 12 137
1997355S05189 1998 113 SP MM SUSAN 1998-01-07 06:00:00 TS -18.9500 173.650 115 915 nadi main 382 352 O_______O___O_ jtwc_sh SH111998 -18.9000 173.800 135 4 -19.0000 173.500 115 915 -19.0000 173.500 115 915 -18.9000 173.800 TC 135 13 133
1997355S05189 1998 113 SP MM SUSAN 1998-01-07 09:00:00 TS -19.4136 174.209 main 352 322 P______IP___P_ SH111998 -19.3921 174.313 132 4 -19.4352 174.105 115 915 -19.4352 174.105 115 915 -19.3921 174.313 TC 132 15 130
1997355S05189 1998 113 SP MM SUSAN 1998-01-07 12:00:00 TS -19.9000 174.850 115 915 nadi main 322 314 O_______O___O_ jtwc_sh SH111998 -19.9000 174.900 130 4 -19.9000 174.800 115 915 -19.9000 174.800 115 915 -19.9000 174.900 TC 130 16 129
1997355S05189 1998 113 SP MM SUSAN 1998-01-07 15:00:00 TS -20.3998 175.524 main 319 313 P______IP___P_ SH111998 -20.3924 175.613 125 4 -20.4071 175.435 112 917 -20.4071 175.435 112 917 -20.3924 175.613 TC 125 17 127
1997355S05189 1998 113 SP MM SUSAN 1998-01-07 18:00:00 TS -20.9000 176.250 110 920 nadi main 330 330 O_______O___O_ jtwc_sh SH111998 -20.9000 176.400 120 4 -20.9000 176.100 110 920 -20.9000 176.100 110 920 -20.9000 176.400 TC 120 17 125
1997355S05189 1998 113 SP MM SUSAN 1998-01-07 21:00:00 TS -21.3556 176.985 main 359 356 P______IP___P_ SH111998 -21.4346 177.186 117 4 -21.2766 176.784 105 922 -21.2766 176.784 105 922 -21.4346 177.186 TC 117 17 123
1997355S05189 1998 113 SP MM SUSAN 1998-01-08 00:00:00 TS -21.8500 177.800 100 925 nadi main 391 391 O_______O___O_ jtwc_sh SH111998 -22.0000 178.000 115 4 -21.7000 177.600 100 925 -21.7000 177.600 100 925 -22.0000 178.000 TC 115 20 123
1997355S05189 1998 113 SP MM SUSAN 1998-01-08 03:00:00 TS -22.4226 178.750 main 461 461 P______IP___P_ SH111998 -22.5696 178.836 107 3 -22.2756 178.663 95 930 -22.2756 178.663 95 930 -22.5696 178.836 TC 107 22 125
1997355S05189 1998 113 SP MM SUSAN 1998-01-08 06:00:00 TS -23.1000 179.750 90 935 nadi main 561 561 O_______O___O_ jtwc_sh SH111998 -23.2000 179.700 100 3 -23.0000 179.800 90 935 -23.0000 179.800 90 935 -23.2000 179.700 TC 100 23 129
1997355S05189 1998 113 SP MM SUSAN 1998-01-08 09:00:00 TS -23.8871 180.719 main 677 677 P______IP___P_ SH111998 -23.8974 -179.392 97 3 -23.8769 -179.170 90 937 -23.8769 -179.170 90 937 -23.8974 -179.392 TC 97 24 134
1997355S05189 1998 113 SP MM SUSAN 1998-01-08 12:00:00 TS -24.7500 181.650 90 940 nadi main 796 806 O_______O___O_ jtwc_sh SH111998 -24.7000 -178.500 95 2 -24.8000 -178.200 90 940 -24.8000 -178.200 90 940 -24.7000 -178.500 TC 95 24 136
1997355S05189 1998 113 SP MM SUSAN 1998-01-08 15:00:00 TS -25.5870 182.532 main 925 925 P______IP___P_ SH111998 -25.5818 -177.690 92 2 -25.5923 -177.246 90 940 -25.5923 -177.246 90 940 -25.5818 -177.690 TC 92 23 139
1997355S05189 1998 113 SP MM SUSAN 1998-01-08 18:00:00 TS -26.5000 183.350 90 940 wellington main 1055 1055 O_______O___O_ jtwc_sh SH111998 -26.6000 -176.900 90 2 -26.4000 -176.400 90 940 -26.4000 -176.400 90 940 -26.6000 -176.900 TC 90 24 145
1997355S05189 1998 113 SP MM SUSAN 1998-01-08 21:00:00 TS -27.5469 184.054 main 1187 1166 P______IP___P_ SH111998 -27.7907 -176.123 85 2 -27.3032 -175.769 82 950 -27.3032 -175.769 82 950 -27.7907 -176.123 TC 85 25 148
1997355S05189 1998 113 SP MM SUSAN 1998-01-09 00:00:00 TS -28.6500 184.850 75 960 wellington main 1166 1120 O_______O___O_ jtwc_sh SH111998 -29.0000 -175.200 80 1 -28.3000 -175.100 75 960 -28.3000 -175.100 75 960 -29.0000 -175.200 TC 80 27 142
1997355S05189 1998 113 SP MM SUSAN 1998-01-09 03:00:00 TS -29.6385 185.897 main 1126 1102 P______IP___P_ SH111998 -30.0005 -173.965 77 1 -29.2765 -174.242 72 961 -29.2765 -174.242 72 961 -30.0005 -173.965 TC 77 29 136
1997355S05189 1998 113 SP MM SUSAN 1998-01-09 06:00:00 TS -30.7500 187.200 70 963 wellington main 1108 1100 O_______O___O_ jtwc_sh SH111998 -31.0000 -172.600 75 1 -30.5000 -173.000 70 963 -30.5000 -173.000 70 963 -31.0000 -172.600 TC 75 35 134
1997355S05189 1998 113 SP MM SUSAN 1998-01-09 09:00:00 TS -32.0558 188.820 main 1117 1117 P______IP___P_ SH111998 -32.1388 -171.296 72 1 -31.9727 -171.063 72 961 -31.9727 -171.063 65 965 -32.1388 -171.296 TC 72 41 136
1997355S05189 1998 113 SP MM SUSAN 1998-01-09 12:00:00 TS -33.7231 190.538 60 967 wellington main 1159 1159 O_______O___O_ jtwc_sh SH111998 -33.4000 -170.000 70 1 -34.0000 -169.000 75 960 -34.0000 -169.000 60 967 -33.4000 -170.000 TC 70 48 146
1997355S05189 1998 113 SP MM SUSAN 1998-01-09 15:00:00 TS -36.0635 192.091 main 1209 1209 P______IP___P_ SH111998 -34.7726 -168.710 65 1 -36.7786 -167.374 70 965 -36.9968 -167.375 57 968 -34.7726 -168.710 TC 65 58 155
1997355S05189 1998 113 SP MM SUSAN 1998-01-09 18:00:00 TS -38.9143 193.600 55 970 wellington main 1310 1310 O_______O___O_ jtwc_sh SH111998 -36.2000 -167.400 60 0 -40.0000 -166.000 65 970 -40.0000 -166.000 55 970 -36.2000 -167.400 TC 60 62 157
1997355S05189 1998 113 SP MM SUSAN 1998-01-09 21:00:00 NR -41.7844 195.216 main 1475 1475 ________P_____ SH111998 -1 -41.7844 -164.784 52 973 TC 50 157
1997355S05189 1998 113 SP MM SUSAN 1998-01-10 00:00:00 NR -43.5000 196.200 50 976 wellington main 1587 1587 ________O_____ -1 -43.5000 -163.800 50 976 45 164
1997355S05189 1998 113 SP MM SUSAN 1998-01-10 03:00:00 NR -46.1292 196.930 main 1716 1716 ________P_____ -1 -46.1292 -163.070 50 974 56 167
1997355S05189 1998 113 SP MM SUSAN 1998-01-10 06:00:00 NR -49.0000 198.000 50 972 wellington main 1916 1916 ________O_____ -1 -49.0000 -162.000 50 972 59 159
1997355S05189 1998 113 SP MM SUSAN 1998-01-10 09:00:00 NR -51.6198 200.085 main 2157 2157 ________P_____ -1 -51.6198 -159.915 50 972 59 148
1997355S05189 1998 113 SP MM SUSAN 1998-01-10 12:00:00 NR -54.0000 203.000 50 972 wellington main 2420 ________O_____ -1 -54.0000 -157.000 50 972 59 144

デジタル台風データ・検索

IBTrACS Databaseについて

本データベースは、米国NOAAが公開する1842年以降の世界の熱帯低気圧のベストトラックデータアーカイブInternational Best Track Archive for Climate Stewardship (IBTrACS)を、ウェブで閲覧しやすい形式に変換したものです。

最終更新日:2021-10-08